sensor_id;sensor_type;location;lat;lon;timestamp;temperature;humidity
59162;DHT22;44942;48.936;8.260;2023-02-24T00:04:45;22.70;54.70
59162;DHT22;44942;48.936;8.260;2023-02-24T00:09:50;22.70;54.70
59162;DHT22;44942;48.936;8.260;2023-02-24T00:14:51;22.70;54.80
59162;DHT22;44942;48.936;8.260;2023-02-24T00:19:52;22.70;55.00
59162;DHT22;44942;48.936;8.260;2023-02-24T00:24:52;22.70;54.70
59162;DHT22;44942;48.936;8.260;2023-02-24T00:29:53;22.70;54.80
59162;DHT22;44942;48.936;8.260;2023-02-24T00:34:53;22.70;54.80
59162;DHT22;44942;48.936;8.260;2023-02-24T00:39:54;22.70;54.80
59162;DHT22;44942;48.936;8.260;2023-02-24T00:44:57;22.70;54.80
59162;DHT22;44942;48.936;8.260;2023-02-24T00:49:58;22.70;54.70
59162;DHT22;44942;48.936;8.260;2023-02-24T00:54:59;22.70;54.80
59162;DHT22;44942;48.936;8.260;2023-02-24T01:00:00;22.60;54.70
59162;DHT22;44942;48.936;8.260;2023-02-24T01:05:01;22.70;54.80
59162;DHT22;44942;48.936;8.260;2023-02-24T01:10:05;22.70;54.80
59162;DHT22;44942;48.936;8.260;2023-02-24T01:15:10;22.70;54.90
59162;DHT22;44942;48.936;8.260;2023-02-24T01:20:11;22.70;54.80
59162;DHT22;44942;48.936;8.260;2023-02-24T01:25:18;22.70;54.80
59162;DHT22;44942;48.936;8.260;2023-02-24T01:30:19;22.70;54.80
59162;DHT22;44942;48.936;8.260;2023-02-24T01:35:20;22.70;54.80
59162;DHT22;44942;48.936;8.260;2023-02-24T01:40:23;22.70;54.70
59162;DHT22;44942;48.936;8.260;2023-02-24T01:45:27;22.70;54.70
59162;DHT22;44942;48.936;8.260;2023-02-24T01:50:28;22.60;54.70
59162;DHT22;44942;48.936;8.260;2023-02-24T01:55:33;22.70;55.40
59162;DHT22;44942;48.936;8.260;2023-02-24T02:00:36;22.70;54.80
59162;DHT22;44942;48.936;8.260;2023-02-24T02:05:46;22.70;54.70
59162;DHT22;44942;48.936;8.260;2023-02-24T02:10:47;22.60;54.70
59162;DHT22;44942;48.936;8.260;2023-02-24T02:15:55;22.60;54.70
59162;DHT22;44942;48.936;8.260;2023-02-24T02:37:46;22.60;54.60
59162;DHT22;44942;48.936;8.260;2023-02-24T02:43:03;22.60;54.60
59162;DHT22;44942;48.936;8.260;2023-02-24T02:53:23;22.60;54.50
59162;DHT22;44942;48.936;8.260;2023-02-24T02:58:29;22.60;54.50
59162;DHT22;44942;48.936;8.260;2023-02-24T03:03:33;22.60;54.50
59162;DHT22;44942;48.936;8.260;2023-02-24T03:08:39;22.50;54.40
59162;DHT22;44942;48.936;8.260;2023-02-24T03:13:44;22.50;54.40
59162;DHT22;44942;48.936;8.260;2023-02-24T03:19:01;22.50;54.30
59162;DHT22;44942;48.936;8.260;2023-02-24T03:24:03;22.50;54.40
59162;DHT22;44942;48.936;8.260;2023-02-24T03:34:23;22.50;54.30
59162;DHT22;44942;48.936;8.260;2023-02-24T03:39:28;22.50;54.30
59162;DHT22;44942;48.936;8.260;2023-02-24T03:44:28;22.50;54.30
59162;DHT22;44942;48.936;8.260;2023-02-24T03:49:29;22.50;54.30
59162;DHT22;44942;48.936;8.260;2023-02-24T03:59:49;22.50;54.20
59162;DHT22;44942;48.936;8.260;2023-02-24T04:05:11;22.50;54.20
59162;DHT22;44942;48.936;8.260;2023-02-24T04:15:37;22.50;54.10
59162;DHT22;44942;48.936;8.260;2023-02-24T04:20:44;22.50;54.10
59162;DHT22;44942;48.936;8.260;2023-02-24T04:25:52;22.50;54.20
59162;DHT22;44942;48.936;8.260;2023-02-24T04:31:02;22.50;54.10
59162;DHT22;44942;48.936;8.260;2023-02-24T04:36:05;22.50;54.10
59162;DHT22;44942;48.936;8.260;2023-02-24T04:41:08;22.50;54.10
59162;DHT22;44942;48.936;8.260;2023-02-24T04:46:08;22.50;54.00
59162;DHT22;44942;48.936;8.260;2023-02-24T04:51:09;22.50;54.00
59162;DHT22;44942;48.936;8.260;2023-02-24T04:56:09;22.50;54.00
59162;DHT22;44942;48.936;8.260;2023-02-24T05:01:10;22.50;54.00
59162;DHT22;44942;48.936;8.260;2023-02-24T05:06:16;22.50;54.00
59162;DHT22;44942;48.936;8.260;2023-02-24T05:11:17;22.50;54.00
59162;DHT22;44942;48.936;8.260;2023-02-24T05:16:18;22.40;53.90
59162;DHT22;44942;48.936;8.260;2023-02-24T05:21:19;22.40;53.90
59162;DHT22;44942;48.936;8.260;2023-02-24T05:26:37;22.40;53.90
59162;DHT22;44942;48.936;8.260;2023-02-24T05:31:40;22.40;54.00
59162;DHT22;44942;48.936;8.260;2023-02-24T05:36:41;22.40;54.10
59162;DHT22;44942;48.936;8.260;2023-02-24T05:41:46;22.40;54.00
59162;DHT22;44942;48.936;8.260;2023-02-24T05:46:49;22.40;54.00
59162;DHT22;44942;48.936;8.260;2023-02-24T05:51:52;22.40;54.00
59162;DHT22;44942;48.936;8.260;2023-02-24T05:57:01;22.40;54.10
59162;DHT22;44942;48.936;8.260;2023-02-24T06:02:07;22.40;54.00
59162;DHT22;44942;48.936;8.260;2023-02-24T06:07:12;22.40;54.00
59162;DHT22;44942;48.936;8.260;2023-02-24T06:12:13;22.40;54.10
59162;DHT22;44942;48.936;8.260;2023-02-24T06:17:17;22.40;54.10
59162;DHT22;44942;48.936;8.260;2023-02-24T06:22:20;22.30;54.00
59162;DHT22;44942;48.936;8.260;2023-02-24T06:27:22;22.30;54.10
59162;DHT22;44942;48.936;8.260;2023-02-24T06:32:24;22.30;54.10
59162;DHT22;44942;48.936;8.260;2023-02-24T06:37:25;22.30;54.10
59162;DHT22;44942;48.936;8.260;2023-02-24T06:42:26;22.30;54.10
59162;DHT22;44942;48.936;8.260;2023-02-24T06:47:26;22.30;54.10
59162;DHT22;44942;48.936;8.260;2023-02-24T06:52:27;22.30;54.00
59162;DHT22;44942;48.936;8.260;2023-02-24T06:57:31;22.30;54.00
59162;DHT22;44942;48.936;8.260;2023-02-24T07:02:36;22.30;54.10
59162;DHT22;44942;48.936;8.260;2023-02-24T07:07:39;22.30;54.00
59162;DHT22;44942;48.936;8.260;2023-02-24T07:12:45;22.30;54.00
59162;DHT22;44942;48.936;8.260;2023-02-24T07:17:45;22.30;54.00
59162;DHT22;44942;48.936;8.260;2023-02-24T07:22:46;22.30;54.00
59162;DHT22;44942;48.936;8.260;2023-02-24T07:27:47;22.30;54.00
59162;DHT22;44942;48.936;8.260;2023-02-24T07:32:47;22.30;54.00
59162;DHT22;44942;48.936;8.260;2023-02-24T07:37:48;22.30;54.00
59162;DHT22;44942;48.936;8.260;2023-02-24T07:42:51;22.30;54.00
59162;DHT22;44942;48.936;8.260;2023-02-24T07:47:53;22.30;53.90
59162;DHT22;44942;48.936;8.260;2023-02-24T07:52:53;22.30;53.90
59162;DHT22;44942;48.936;8.260;2023-02-24T07:57:54;22.30;53.90
59162;DHT22;44942;48.936;8.260;2023-02-24T08:02:56;22.30;53.90
59162;DHT22;44942;48.936;8.260;2023-02-24T08:07:57;22.20;53.90
59162;DHT22;44942;48.936;8.260;2023-02-24T08:12:58;22.20;53.80
59162;DHT22;44942;48.936;8.260;2023-02-24T08:18:02;22.20;53.80
59162;DHT22;44942;48.936;8.260;2023-02-24T08:23:03;22.20;53.80
59162;DHT22;44942;48.936;8.260;2023-02-24T08:28:07;22.20;53.80
59162;DHT22;44942;48.936;8.260;2023-02-24T08:33:20;21.50;51.10
59162;DHT22;44942;48.936;8.260;2023-02-24T08:38:22;20.30;49.40
59162;DHT22;44942;48.936;8.260;2023-02-24T08:43:31;20.00;49.70
59162;DHT22;44942;48.936;8.260;2023-02-24T08:48:39;20.40;49.70
59162;DHT22;44942;48.936;8.260;2023-02-24T08:53:43;20.80;50.70
59162;DHT22;44942;48.936;8.260;2023-02-24T08:58:45;21.00;50.40
59162;DHT22;44942;48.936;8.260;2023-02-24T09:03:57;21.10;50.70
59162;DHT22;44942;48.936;8.260;2023-02-24T09:08:58;21.20;51.00
59162;DHT22;44942;48.936;8.260;2023-02-24T09:14:18;21.20;51.00
59162;DHT22;44942;48.936;8.260;2023-02-24T09:19:19;21.30;51.20
59162;DHT22;44942;48.936;8.260;2023-02-24T09:24:42;21.30;51.40
59162;DHT22;44942;48.936;8.260;2023-02-24T09:29:44;21.40;51.50
59162;DHT22;44942;48.936;8.260;2023-02-24T09:34:50;21.40;51.60
59162;DHT22;44942;48.936;8.260;2023-02-24T09:39:52;21.40;51.70
59162;DHT22;44942;48.936;8.260;2023-02-24T09:45:00;21.40;51.80
59162;DHT22;44942;48.936;8.260;2023-02-24T09:55:41;21.40;51.80
59162;DHT22;44942;48.936;8.260;2023-02-24T10:06:25;21.40;51.90
59162;DHT22;44942;48.936;8.260;2023-02-24T10:11:34;21.50;52.00
59162;DHT22;44942;48.936;8.260;2023-02-24T10:16:39;21.40;50.90
59162;DHT22;44942;48.936;8.260;2023-02-24T10:21:49;21.00;49.80
59162;DHT22;44942;48.936;8.260;2023-02-24T10:37:24;21.20;50.30
59162;DHT22;44942;48.936;8.260;2023-02-24T10:42:30;21.20;50.70
59162;DHT22;44942;48.936;8.260;2023-02-24T10:47:33;21.30;51.20
59162;DHT22;44942;48.936;8.260;2023-02-24T10:52:36;21.30;51.40
59162;DHT22;44942;48.936;8.260;2023-02-24T10:58:02;21.30;51.60
59162;DHT22;44942;48.936;8.260;2023-02-24T11:03:09;21.40;51.80
59162;DHT22;44942;48.936;8.260;2023-02-24T11:08:17;21.40;51.90
59162;DHT22;44942;48.936;8.260;2023-02-24T11:13:37;21.50;52.10
59162;DHT22;44942;48.936;8.260;2023-02-24T11:18:56;21.50;52.20
59162;DHT22;44942;48.936;8.260;2023-02-24T11:23:58;21.50;52.30
59162;DHT22;44942;48.936;8.260;2023-02-24T11:39:51;21.60;52.70
59162;DHT22;44942;48.936;8.260;2023-02-24T11:45:06;21.70;52.80
59162;DHT22;44942;48.936;8.260;2023-02-24T11:55:45;21.70;52.80
59162;DHT22;44942;48.936;8.260;2023-02-24T12:00:58;21.70;52.70
59162;DHT22;44942;48.936;8.260;2023-02-24T12:06:11;21.80;52.80
59162;DHT22;44942;48.936;8.260;2023-02-24T12:11:19;21.80;52.80
59162;DHT22;44942;48.936;8.260;2023-02-24T12:16:28;21.80;52.80
59162;DHT22;44942;48.936;8.260;2023-02-24T12:21:34;21.90;52.90
59162;DHT22;44942;48.936;8.260;2023-02-24T12:27:03;21.90;52.90
59162;DHT22;44942;48.936;8.260;2023-02-24T12:43:12;21.90;53.00
59162;DHT22;44942;48.936;8.260;2023-02-24T12:48:47;21.90;53.00
59162;DHT22;44942;48.936;8.260;2023-02-24T12:54:20;21.90;53.00
59162;DHT22;44942;48.936;8.260;2023-02-24T12:59:19;21.90;53.00
59162;DHT22;44942;48.936;8.260;2023-02-24T13:14:52;22.00;53.00
59162;DHT22;44942;48.936;8.260;2023-02-24T13:19:54;22.00;53.00
59162;DHT22;44942;48.936;8.260;2023-02-24T13:45:19;22.10;53.00
59162;DHT22;44942;48.936;8.260;2023-02-24T13:50:28;22.10;53.00
59162;DHT22;44942;48.936;8.260;2023-02-24T14:05:54;22.10;52.90
59162;DHT22;44942;48.936;8.260;2023-02-24T14:10:57;22.10;52.90
59162;DHT22;44942;48.936;8.260;2023-02-24T14:16:03;22.10;52.90
59162;DHT22;44942;48.936;8.260;2023-02-24T14:21:16;22.10;52.90
59162;DHT22;44942;48.936;8.260;2023-02-24T14:26:19;22.10;52.80
59162;DHT22;44942;48.936;8.260;2023-02-24T14:31:21;22.10;52.80
59162;DHT22;44942;48.936;8.260;2023-02-24T14:36:25;22.10;52.80
59162;DHT22;44942;48.936;8.260;2023-02-24T14:41:26;22.10;52.80
59162;DHT22;44942;48.936;8.260;2023-02-24T14:46:27;22.10;52.90
59162;DHT22;44942;48.936;8.260;2023-02-24T14:51:31;22.10;52.90
59162;DHT22;44942;48.936;8.260;2023-02-24T14:56:34;22.10;52.90
59162;DHT22;44942;48.936;8.260;2023-02-24T15:01:38;22.10;52.90
59162;DHT22;44942;48.936;8.260;2023-02-24T15:06:41;22.10;52.90
59162;DHT22;44942;48.936;8.260;2023-02-24T15:11:43;22.10;53.00
59162;DHT22;44942;48.936;8.260;2023-02-24T15:16:47;22.10;53.10
59162;DHT22;44942;48.936;8.260;2023-02-24T15:21:48;22.10;53.10
59162;DHT22;44942;48.936;8.260;2023-02-24T15:27:01;22.10;53.20
59162;DHT22;44942;48.936;8.260;2023-02-24T15:32:03;22.10;53.30
59162;DHT22;44942;48.936;8.260;2023-02-24T15:37:19;22.20;53.30
59162;DHT22;44942;48.936;8.260;2023-02-24T15:42:30;22.20;53.40
59162;DHT22;44942;48.936;8.260;2023-02-24T15:47:44;22.20;53.50
59162;DHT22;44942;48.936;8.260;2023-02-24T15:52:45;22.20;53.60
59162;DHT22;44942;48.936;8.260;2023-02-24T15:57:47;22.30;53.70
59162;DHT22;44942;48.936;8.260;2023-02-24T16:02:56;22.30;53.70
59162;DHT22;44942;48.936;8.260;2023-02-24T16:07:57;22.30;53.70
59162;DHT22;44942;48.936;8.260;2023-02-24T16:12:59;22.30;53.80
59162;DHT22;44942;48.936;8.260;2023-02-24T16:18:00;22.30;53.80
59162;DHT22;44942;48.936;8.260;2023-02-24T16:23:03;22.30;53.80
59162;DHT22;44942;48.936;8.260;2023-02-24T16:28:04;22.40;53.90
59162;DHT22;44942;48.936;8.260;2023-02-24T16:33:04;22.40;53.90
59162;DHT22;44942;48.936;8.260;2023-02-24T16:38:05;22.40;53.80
59162;DHT22;44942;48.936;8.260;2023-02-24T16:43:06;22.40;53.80
59162;DHT22;44942;48.936;8.260;2023-02-24T16:48:20;22.40;53.80
59162;DHT22;44942;48.936;8.260;2023-02-24T16:53:22;22.40;53.80
59162;DHT22;44942;48.936;8.260;2023-02-24T16:58:23;22.40;53.70
59162;DHT22;44942;48.936;8.260;2023-02-24T17:03:44;22.40;53.80
59162;DHT22;44942;48.936;8.260;2023-02-24T17:08:45;22.40;53.80
59162;DHT22;44942;48.936;8.260;2023-02-24T17:13:46;22.40;53.70
59162;DHT22;44942;48.936;8.260;2023-02-24T17:18:47;22.40;53.70
59162;DHT22;44942;48.936;8.260;2023-02-24T17:23:47;22.40;53.80
59162;DHT22;44942;48.936;8.260;2023-02-24T17:28:48;22.40;53.70
59162;DHT22;44942;48.936;8.260;2023-02-24T17:33:48;22.50;53.80
59162;DHT22;44942;48.936;8.260;2023-02-24T17:38:52;22.50;53.90
59162;DHT22;44942;48.936;8.260;2023-02-24T17:43:54;22.50;53.90
59162;DHT22;44942;48.936;8.260;2023-02-24T17:48:55;22.50;53.80
59162;DHT22;44942;48.936;8.260;2023-02-24T17:53:56;22.50;53.80
59162;DHT22;44942;48.936;8.260;2023-02-24T17:58:57;22.50;53.80
59162;DHT22;44942;48.936;8.260;2023-02-24T18:04:00;22.50;53.80
59162;DHT22;44942;48.936;8.260;2023-02-24T18:09:00;22.50;53.70
59162;DHT22;44942;48.936;8.260;2023-02-24T18:14:02;22.50;53.90
59162;DHT22;44942;48.936;8.260;2023-02-24T18:19:03;22.50;53.70
59162;DHT22;44942;48.936;8.260;2023-02-24T18:24:03;22.50;53.60
59162;DHT22;44942;48.936;8.260;2023-02-24T18:29:04;22.50;53.70
59162;DHT22;44942;48.936;8.260;2023-02-24T18:34:05;22.50;53.60
59162;DHT22;44942;48.936;8.260;2023-02-24T18:39:06;22.50;53.60
59162;DHT22;44942;48.936;8.260;2023-02-24T18:44:08;22.50;53.50
59162;DHT22;44942;48.936;8.260;2023-02-24T18:49:09;22.50;53.50
59162;DHT22;44942;48.936;8.260;2023-02-24T18:54:11;22.50;53.50
59162;DHT22;44942;48.936;8.260;2023-02-24T18:59:11;22.50;53.50
59162;DHT22;44942;48.936;8.260;2023-02-24T19:04:12;22.50;53.40
59162;DHT22;44942;48.936;8.260;2023-02-24T19:09:14;22.50;53.40
59162;DHT22;44942;48.936;8.260;2023-02-24T19:14:16;22.50;53.40
59162;DHT22;44942;48.936;8.260;2023-02-24T19:19:16;22.50;54.10
59162;DHT22;44942;48.936;8.260;2023-02-24T19:24:17;22.50;53.40
59162;DHT22;44942;48.936;8.260;2023-02-24T19:29:18;22.40;53.30
59162;DHT22;44942;48.936;8.260;2023-02-24T19:34:20;22.40;53.30
59162;DHT22;44942;48.936;8.260;2023-02-24T19:39:21;22.50;53.30
59162;DHT22;44942;48.936;8.260;2023-02-24T19:44:22;22.40;53.60
59162;DHT22;44942;48.936;8.260;2023-02-24T19:49:23;22.50;53.20
59162;DHT22;44942;48.936;8.260;2023-02-24T19:54:23;22.40;53.20
59162;DHT22;44942;48.936;8.260;2023-02-24T19:59:24;22.40;53.20
59162;DHT22;44942;48.936;8.260;2023-02-24T20:04:25;22.40;53.10
59162;DHT22;44942;48.936;8.260;2023-02-24T20:09:25;22.40;53.10
59162;DHT22;44942;48.936;8.260;2023-02-24T20:14:27;22.40;53.10
59162;DHT22;44942;48.936;8.260;2023-02-24T20:19:28;22.40;53.10
59162;DHT22;44942;48.936;8.260;2023-02-24T20:24:28;22.40;53.10
59162;DHT22;44942;48.936;8.260;2023-02-24T20:29:30;22.40;53.00
59162;DHT22;44942;48.936;8.260;2023-02-24T20:34:34;22.40;53.00
59162;DHT22;44942;48.936;8.260;2023-02-24T20:39:36;22.40;53.00
59162;DHT22;44942;48.936;8.260;2023-02-24T20:44:37;22.40;53.80
59162;DHT22;44942;48.936;8.260;2023-02-24T20:49:37;22.50;53.20
59162;DHT22;44942;48.936;8.260;2023-02-24T20:54:38;22.50;53.20
59162;DHT22;44942;48.936;8.260;2023-02-24T20:59:42;22.50;53.20
59162;DHT22;44942;48.936;8.260;2023-02-24T21:04:44;22.50;53.20
59162;DHT22;44942;48.936;8.260;2023-02-24T21:09:44;22.50;53.30
59162;DHT22;44942;48.936;8.260;2023-02-24T21:14:45;22.50;53.30
59162;DHT22;44942;48.936;8.260;2023-02-24T21:19:45;22.50;53.30
59162;DHT22;44942;48.936;8.260;2023-02-24T21:24:46;22.50;53.30
59162;DHT22;44942;48.936;8.260;2023-02-24T21:29:46;22.50;53.30
59162;DHT22;44942;48.936;8.260;2023-02-24T21:34:47;22.50;53.40
59162;DHT22;44942;48.936;8.260;2023-02-24T21:39:49;22.50;53.40
59162;DHT22;44942;48.936;8.260;2023-02-24T21:44:49;22.50;53.50
59162;DHT22;44942;48.936;8.260;2023-02-24T21:49:51;22.50;53.40
59162;DHT22;44942;48.936;8.260;2023-02-24T21:54:52;22.50;53.50
59162;DHT22;44942;48.936;8.260;2023-02-24T21:59:52;22.50;53.50
59162;DHT22;44942;48.936;8.260;2023-02-24T22:04:53;22.50;53.50
59162;DHT22;44942;48.936;8.260;2023-02-24T22:09:54;22.50;53.50
59162;DHT22;44942;48.936;8.260;2023-02-24T22:14:54;22.50;53.50
59162;DHT22;44942;48.936;8.260;2023-02-24T22:19:55;22.50;53.50
59162;DHT22;44942;48.936;8.260;2023-02-24T22:24:56;22.50;53.40
59162;DHT22;44942;48.936;8.260;2023-02-24T22:29:56;22.50;53.40
59162;DHT22;44942;48.936;8.260;2023-02-24T22:34:57;22.50;53.30
59162;DHT22;44942;48.936;8.260;2023-02-24T22:39:57;22.60;53.40
59162;DHT22;44942;48.936;8.260;2023-02-24T22:44:58;22.60;53.40
59162;DHT22;44942;48.936;8.260;2023-02-24T22:49:59;22.60;53.40
59162;DHT22;44942;48.936;8.260;2023-02-24T22:54:59;22.60;53.40
59162;DHT22;44942;48.936;8.260;2023-02-24T23:00:00;22.60;53.30
59162;DHT22;44942;48.936;8.260;2023-02-24T23:05:01;22.50;53.30
59162;DHT22;44942;48.936;8.260;2023-02-24T23:10:02;22.50;53.30
59162;DHT22;44942;48.936;8.260;2023-02-24T23:15:03;22.60;53.50
59162;DHT22;44942;48.936;8.260;2023-02-24T23:20:04;22.50;53.40
59162;DHT22;44942;48.936;8.260;2023-02-24T23:25:12;22.50;53.40
59162;DHT22;44942;48.936;8.260;2023-02-24T23:30:12;22.60;53.60
59162;DHT22;44942;48.936;8.260;2023-02-24T23:35:13;22.50;53.60
59162;DHT22;44942;48.936;8.260;2023-02-24T23:40:14;22.50;53.70
59162;DHT22;44942;48.936;8.260;2023-02-24T23:45:15;22.50;53.80
59162;DHT22;44942;48.936;8.260;2023-02-24T23:50:16;22.50;53.90
59162;DHT22;44942;48.936;8.260;2023-02-24T23:55:17;22.50;53.90
